Shelby County Airport
KEET : now visible

Airfield :











YOU CAN JOIN US ON...

 
LOGIN :

Register | Disclaimer

   EN    FR    IT 

 









Legend :    VFR   Marginal VFR   IFR   Intensive IFR   Very Intensive IFR
Visi :
Ceiling :
>= 8 km
>= 3000ft
5 to 8 km
1000 to 3000 ft
1500m to 5 km
500 to 1000 ft
800 to 1500m
200 to 500 ft
< 800m
< 200 ft
Symbols :   Thunderstorms  Fog  Heavy snow  Heavy precipitations  Wind > 20 kt






- Airport Elevation : 586 ft


KEET - Shelby County

CURRENT METAR :
  • 281153Z AUTO 21005KT 8SM BKN011 OVC014 21/19 A2998 RMK AO2 SLP145 T02060189 10211 20194 53014

EXPIRED METARs :
  • 281136Z AUTO 21005KT 9SM OVC011 21/19 A2997 RMK AO2 T02060189
  • 281117Z AUTO 18006G14KT 9SM BKN009 OVC033 21/19 A2995 RMK AO2 T02060189
  • 281106Z AUTO 19006KT 9SM BKN010 OVC032 20/19 A2995 RMK AO2 T02000189
  • 281053Z AUTO 18006KT 9SM SCT010 BKN032 20/19 A2994 RMK AO2 SLP131 T02000189
  • 281045Z AUTO 18006KT 9SM SCT010 BKN032 20/19 A2994 RMK AO2 T02000189
  • 280953Z AUTO 18008KT 8SM OVC007 20/19 A2993 RMK AO2 CIG 006V011 SLP129 T02000189

TAF KEET
Valid from the 28 at 12:00 until the 29 at 12:00 UTC


281127Z 2812/2912 21006KT P6SM BKN016
TEMPO 2812/2815 OVC009
FM281600 21008KT P6SM BKN025
FM281800 20009KT P6SM SCT060
FM290600 20009KT P6SM OVC022
PROB30 2906/2912 4SM SHRA OVC015



MET'MAP, your aeronautical weather chart ! - Copyright ORBIFLY December 2007 - Disclaimer

ORBIFLY MET'MAP TEAM :

Programming & Development : Alexandra Zaïnal
Concept & original design : Baudouin d'Aumeries
Assistance for programming : Marc-Olivier Méhu
Technical & hardware support : Manuel Goepfert

Contact : metmap@orbifly.com




SOURCES & CREDITS :

   NOAA       Earth
Advisory